sensor_id;sensor_type;location;lat;lon;timestamp;P1;durP1;ratioP1;P2;durP2;ratioP2
56039;SDS011;43937;41.366;2.072;2022-12-24T00:04:49;1.02;;;0.40;;
56039;SDS011;43937;41.366;2.072;2022-12-24T00:07:14;0.10;;;0.10;;
56039;SDS011;43937;41.366;2.072;2022-12-24T00:10:48;0.52;;;0.10;;
56039;SDS011;43937;41.366;2.072;2022-12-24T00:13:48;0.08;;;0.08;;
56039;SDS011;43937;41.366;2.072;2022-12-24T00:16:14;0.30;;;0.13;;
56039;SDS011;43937;41.366;2.072;2022-12-24T00:24:41;0.10;;;0.10;;
56039;SDS011;43937;41.366;2.072;2022-12-24T00:28:49;0.40;;;0.20;;
56039;SDS011;43937;41.366;2.072;2022-12-24T00:31:16;0.40;;;0.30;;
56039;SDS011;43937;41.366;2.072;2022-12-24T00:34:59;0.10;;;0.10;;
56039;SDS011;43937;41.366;2.072;2022-12-24T00:37:25;0.13;;;0.10;;
56039;SDS011;43937;41.366;2.072;2022-12-24T00:42:24;0.20;;;0.20;;
56039;SDS011;43937;41.366;2.072;2022-12-24T00:45:19;0.10;;;0.10;;
56039;SDS011;43937;41.366;2.072;2022-12-24T00:48:11;0.10;;;0.10;;
56039;SDS011;43937;41.366;2.072;2022-12-24T01:01:22;0.20;;;0.20;;
56039;SDS011;43937;41.366;2.072;2022-12-24T01:20:14;0.25;;;0.25;;
56039;SDS011;43937;41.366;2.072;2022-12-24T01:22:40;0.10;;;0.10;;
56039;SDS011;43937;41.366;2.072;2022-12-24T01:25:06;0.63;;;0.20;;
56039;SDS011;43937;41.366;2.072;2022-12-24T01:29:07;0.10;;;0.10;;
56039;SDS011;43937;41.366;2.072;2022-12-24T01:33:28;0.45;;;0.35;;
56039;SDS011;43937;41.366;2.072;2022-12-24T01:36:56;0.13;;;0.13;;
56039;SDS011;43937;41.366;2.072;2022-12-24T01:41:28;0.90;;;0.22;;
56039;SDS011;43937;41.366;2.072;2022-12-24T01:48:01;0.88;;;0.25;;
56039;SDS011;43937;41.366;2.072;2022-12-24T01:55:22;0.17;;;0.17;;
56039;SDS011;43937;41.366;2.072;2022-12-24T01:57:56;0.20;;;0.20;;
56039;SDS011;43937;41.366;2.072;2022-12-24T02:06:51;0.05;;;0.05;;
56039;SDS011;43937;41.366;2.072;2022-12-24T02:09:59;0.10;;;0.10;;
56039;SDS011;43937;41.366;2.072;2022-12-24T02:13:14;0.00;;;0.00;;
56039;SDS011;43937;41.366;2.072;2022-12-24T02:25:09;0.10;;;0.10;;
56039;SDS011;43937;41.366;2.072;2022-12-24T02:43:37;0.85;;;0.30;;
56039;SDS011;43937;41.366;2.072;2022-12-24T02:49:55;0.55;;;0.25;;
56039;SDS011;43937;41.366;2.072;2022-12-24T02:54:36;0.35;;;0.20;;
56039;SDS011;43937;41.366;2.072;2022-12-24T03:04:30;0.30;;;0.10;;
56039;SDS011;43937;41.366;2.072;2022-12-24T03:09:29;0.20;;;0.20;;
56039;SDS011;43937;41.366;2.072;2022-12-24T03:12:30;0.63;;;0.10;;
56039;SDS011;43937;41.366;2.072;2022-12-24T03:15:08;0.15;;;0.15;;
56039;SDS011;43937;41.366;2.072;2022-12-24T03:21:20;1.30;;;0.30;;
56039;SDS011;43937;41.366;2.072;2022-12-24T03:24:40;0.20;;;0.20;;
56039;SDS011;43937;41.366;2.072;2022-12-24T03:29:32;2.28;;;0.43;;
56039;SDS011;43937;41.366;2.072;2022-12-24T03:33:08;0.20;;;0.20;;
56039;SDS011;43937;41.366;2.072;2022-12-24T03:37:31;0.10;;;0.10;;
56039;SDS011;43937;41.366;2.072;2022-12-24T03:39:57;0.75;;;0.10;;
56039;SDS011;43937;41.366;2.072;2022-12-24T03:42:22;0.17;;;0.13;;
56039;SDS011;43937;41.366;2.072;2022-12-24T03:50:26;0.90;;;0.15;;
56039;SDS011;43937;41.366;2.072;2022-12-24T03:52:52;0.55;;;0.30;;
56039;SDS011;43937;41.366;2.072;2022-12-24T03:58:38;0.40;;;0.40;;
56039;SDS011;43937;41.366;2.072;2022-12-24T04:06:11;0.30;;;0.30;;
56039;SDS011;43937;41.366;2.072;2022-12-24T04:10:14;0.30;;;0.30;;
56039;SDS011;43937;41.366;2.072;2022-12-24T04:20:16;0.63;;;0.20;;
56039;SDS011;43937;41.366;2.072;2022-12-24T04:23:43;0.30;;;0.25;;
56039;SDS011;43937;41.366;2.072;2022-12-24T04:32:49;0.50;;;0.20;;
56039;SDS011;43937;41.366;2.072;2022-12-24T04:36:33;0.28;;;0.28;;
56039;SDS011;43937;41.366;2.072;2022-12-24T04:45:33;0.17;;;0.17;;
56039;SDS011;43937;41.366;2.072;2022-12-24T04:51:17;1.27;;;0.30;;
56039;SDS011;43937;41.366;2.072;2022-12-24T05:05:19;0.40;;;0.40;;
56039;SDS011;43937;41.366;2.072;2022-12-24T05:13:12;1.92;;;0.60;;
56039;SDS011;43937;41.366;2.072;2022-12-24T05:15:37;2.13;;;0.50;;
56039;SDS011;43937;41.366;2.072;2022-12-24T05:30:27;1.08;;;0.38;;
56039;SDS011;43937;41.366;2.072;2022-12-24T05:33:21;0.45;;;0.30;;
56039;SDS011;43937;41.366;2.072;2022-12-24T05:37:02;0.75;;;0.68;;
56039;SDS011;43937;41.366;2.072;2022-12-24T05:45:24;0.57;;;0.30;;
56039;SDS011;43937;41.366;2.072;2022-12-24T05:47:49;1.95;;;0.40;;
56039;SDS011;43937;41.366;2.072;2022-12-24T06:00:12;0.35;;;0.35;;
56039;SDS011;43937;41.366;2.072;2022-12-24T06:02:53;0.77;;;0.50;;
56039;SDS011;43937;41.366;2.072;2022-12-24T06:07:04;0.57;;;0.40;;
56039;SDS011;43937;41.366;2.072;2022-12-24T06:11:26;0.52;;;0.40;;
56039;SDS011;43937;41.366;2.072;2022-12-24T06:17:41;0.70;;;0.57;;
56039;SDS011;43937;41.366;2.072;2022-12-24T06:21:41;0.30;;;0.30;;
56039;SDS011;43937;41.366;2.072;2022-12-24T06:29:23;1.02;;;0.63;;
56039;SDS011;43937;41.366;2.072;2022-12-24T06:34:39;0.50;;;0.50;;
56039;SDS011;43937;41.366;2.072;2022-12-24T06:37:04;0.32;;;0.32;;
56039;SDS011;43937;41.366;2.072;2022-12-24T06:43:30;3.67;;;0.70;;
56039;SDS011;43937;41.366;2.072;2022-12-24T06:48:03;0.45;;;0.45;;
56039;SDS011;43937;41.366;2.072;2022-12-24T06:51:51;0.43;;;0.43;;
56039;SDS011;43937;41.366;2.072;2022-12-24T07:06:24;0.43;;;0.40;;
56039;SDS011;43937;41.366;2.072;2022-12-24T07:19:21;0.75;;;0.75;;
56039;SDS011;43937;41.366;2.072;2022-12-24T07:21:46;3.17;;;1.15;;
56039;SDS011;43937;41.366;2.072;2022-12-24T07:24:39;0.98;;;0.82;;
56039;SDS011;43937;41.366;2.072;2022-12-24T07:30:31;1.63;;;1.08;;
56039;SDS011;43937;41.366;2.072;2022-12-24T07:37:17;1.98;;;0.95;;
56039;SDS011;43937;41.366;2.072;2022-12-24T07:43:14;0.50;;;0.50;;
56039;SDS011;43937;41.366;2.072;2022-12-24T07:50:59;1.00;;;0.82;;
56039;SDS011;43937;41.366;2.072;2022-12-24T07:53:25;0.52;;;0.52;;
56039;SDS011;43937;41.366;2.072;2022-12-24T07:58:04;0.90;;;0.85;;
56039;SDS011;43937;41.366;2.072;2022-12-24T08:00:57;1.65;;;1.17;;
56039;SDS011;43937;41.366;2.072;2022-12-24T08:13:39;0.77;;;0.77;;
56039;SDS011;43937;41.366;2.072;2022-12-24T08:18:11;1.75;;;1.13;;
56039;SDS011;43937;41.366;2.072;2022-12-24T08:21:17;6.43;;;4.15;;
56039;SDS011;43937;41.366;2.072;2022-12-24T08:28:56;0.65;;;0.65;;
56039;SDS011;43937;41.366;2.072;2022-12-24T08:31:21;1.05;;;0.82;;
56039;SDS011;43937;41.366;2.072;2022-12-24T08:41:18;0.50;;;0.50;;
56039;SDS011;43937;41.366;2.072;2022-12-24T08:45:53;0.60;;;0.60;;
56039;SDS011;43937;41.366;2.072;2022-12-24T08:48:58;0.50;;;0.50;;
56039;SDS011;43937;41.366;2.072;2022-12-24T08:51:24;0.70;;;0.70;;
56039;SDS011;43937;41.366;2.072;2022-12-24T08:53:49;0.52;;;0.50;;
56039;SDS011;43937;41.366;2.072;2022-12-24T09:00:55;1.13;;;0.63;;
56039;SDS011;43937;41.366;2.072;2022-12-24T09:03:21;0.30;;;0.30;;
56039;SDS011;43937;41.366;2.072;2022-12-24T09:05:46;0.32;;;0.30;;
56039;SDS011;43937;41.366;2.072;2022-12-24T09:14:33;1.20;;;0.63;;
56039;SDS011;43937;41.366;2.072;2022-12-24T09:22:52;0.75;;;0.60;;
56039;SDS011;43937;41.366;2.072;2022-12-24T09:26:33;0.40;;;0.40;;
56039;SDS011;43937;41.366;2.072;2022-12-24T09:32:25;0.88;;;0.70;;
56039;SDS011;43937;41.366;2.072;2022-12-24T09:35:16;1.65;;;0.60;;
56039;SDS011;43937;41.366;2.072;2022-12-24T09:45:11;0.40;;;0.40;;
56039;SDS011;43937;41.366;2.072;2022-12-24T09:57:57;0.20;;;0.20;;
56039;SDS011;43937;41.366;2.072;2022-12-24T10:24:21;0.65;;;0.60;;
56039;SDS011;43937;41.366;2.072;2022-12-24T10:28:07;1.27;;;0.70;;
56039;SDS011;43937;41.366;2.072;2022-12-24T10:36:26;1.08;;;0.40;;
56039;SDS011;43937;41.366;2.072;2022-12-24T10:42:49;0.60;;;0.50;;
56039;SDS011;43937;41.366;2.072;2022-12-24T10:46:37;0.52;;;0.52;;
56039;SDS011;43937;41.366;2.072;2022-12-24T10:52:23;0.77;;;0.77;;
56039;SDS011;43937;41.366;2.072;2022-12-24T11:08:22;0.50;;;0.50;;
56039;SDS011;43937;41.366;2.072;2022-12-24T11:14:36;0.32;;;0.30;;
56039;SDS011;43937;41.366;2.072;2022-12-24T11:19:45;0.60;;;0.50;;
56039;SDS011;43937;41.366;2.072;2022-12-24T11:34:34;0.82;;;0.50;;
56039;SDS011;43937;41.366;2.072;2022-12-24T11:38:33;2.85;;;0.80;;
56039;SDS011;43937;41.366;2.072;2022-12-24T11:44:12;0.30;;;0.30;;
56039;SDS011;43937;41.366;2.072;2022-12-24T11:46:41;0.63;;;0.30;;
56039;SDS011;43937;41.366;2.072;2022-12-24T11:49:21;0.50;;;0.50;;
56039;SDS011;43937;41.366;2.072;2022-12-24T11:54:23;0.93;;;0.60;;
56039;SDS011;43937;41.366;2.072;2022-12-24T11:57:43;0.85;;;0.85;;
56039;SDS011;43937;41.366;2.072;2022-12-24T12:03:03;1.40;;;1.08;;
56039;SDS011;43937;41.366;2.072;2022-12-24T12:25:20;1.50;;;0.90;;
56039;SDS011;43937;41.366;2.072;2022-12-24T12:27:51;2.22;;;0.98;;
56039;SDS011;43937;41.366;2.072;2022-12-24T12:32:34;2.72;;;1.88;;
56039;SDS011;43937;41.366;2.072;2022-12-24T12:38:22;1.77;;;0.90;;
56039;SDS011;43937;41.366;2.072;2022-12-24T12:53:22;0.50;;;0.45;;
56039;SDS011;43937;41.366;2.072;2022-12-24T13:12:18;1.08;;;0.45;;
56039;SDS011;43937;41.366;2.072;2022-12-24T13:15:01;1.98;;;0.60;;
56039;SDS011;43937;41.366;2.072;2022-12-24T13:30:46;1.65;;;0.70;;
56039;SDS011;43937;41.366;2.072;2022-12-24T13:35:30;0.38;;;0.38;;
56039;SDS011;43937;41.366;2.072;2022-12-24T13:44:50;1.27;;;0.63;;
56039;SDS011;43937;41.366;2.072;2022-12-24T13:52:13;0.63;;;0.63;;
56039;SDS011;43937;41.366;2.072;2022-12-24T14:08:07;0.50;;;0.50;;
56039;SDS011;43937;41.366;2.072;2022-12-24T14:10:37;0.57;;;0.57;;
56039;SDS011;43937;41.366;2.072;2022-12-24T14:23:32;0.68;;;0.55;;
56039;SDS011;43937;41.366;2.072;2022-12-24T14:51:15;2.55;;;1.00;;
56039;SDS011;43937;41.366;2.072;2022-12-24T15:04:20;3.22;;;1.20;;
56039;SDS011;43937;41.366;2.072;2022-12-24T15:08:15;1.73;;;0.70;;
56039;SDS011;43937;41.366;2.072;2022-12-24T15:11:31;3.58;;;0.93;;
56039;SDS011;43937;41.366;2.072;2022-12-24T15:21:49;0.70;;;0.65;;
56039;SDS011;43937;41.366;2.072;2022-12-24T15:24:54;1.30;;;0.70;;
56039;SDS011;43937;41.366;2.072;2022-12-24T15:29:29;0.43;;;0.43;;
56039;SDS011;43937;41.366;2.072;2022-12-24T15:32:28;0.95;;;0.70;;
56039;SDS011;43937;41.366;2.072;2022-12-24T15:41:14;1.88;;;0.77;;
56039;SDS011;43937;41.366;2.072;2022-12-24T15:43:43;1.10;;;0.55;;
56039;SDS011;43937;41.366;2.072;2022-12-24T15:48:20;2.60;;;0.70;;
56039;SDS011;43937;41.366;2.072;2022-12-24T16:15:00;1.90;;;1.48;;
56039;SDS011;43937;41.366;2.072;2022-12-24T16:19:31;2.35;;;1.25;;
56039;SDS011;43937;41.366;2.072;2022-12-24T16:25:27;3.25;;;1.00;;
56039;SDS011;43937;41.366;2.072;2022-12-24T16:32:33;2.30;;;1.00;;
56039;SDS011;43937;41.366;2.072;2022-12-24T16:36:28;1.45;;;1.08;;
56039;SDS011;43937;41.366;2.072;2022-12-24T16:41:54;2.92;;;1.80;;
56039;SDS011;43937;41.366;2.072;2022-12-24T16:51:18;0.60;;;0.60;;
56039;SDS011;43937;41.366;2.072;2022-12-24T16:54:49;0.80;;;0.65;;
56039;SDS011;43937;41.366;2.072;2022-12-24T17:01:06;0.70;;;0.70;;
56039;SDS011;43937;41.366;2.072;2022-12-24T17:08:52;1.55;;;0.93;;
56039;SDS011;43937;41.366;2.072;2022-12-24T17:11:57;2.85;;;1.13;;
56039;SDS011;43937;41.366;2.072;2022-12-24T17:14:22;2.20;;;1.33;;
56039;SDS011;43937;41.366;2.072;2022-12-24T17:16:48;5.38;;;1.50;;
56039;SDS011;43937;41.366;2.072;2022-12-24T17:22:47;4.88;;;1.55;;
56039;SDS011;43937;41.366;2.072;2022-12-24T17:25:49;2.08;;;1.45;;
56039;SDS011;43937;41.366;2.072;2022-12-24T17:29:00;1.77;;;1.20;;
56039;SDS011;43937;41.366;2.072;2022-12-24T17:33:31;2.95;;;1.45;;
56039;SDS011;43937;41.366;2.072;2022-12-24T17:43:18;2.47;;;1.70;;
56039;SDS011;43937;41.366;2.072;2022-12-24T17:47:41;2.50;;;1.52;;
56039;SDS011;43937;41.366;2.072;2022-12-24T18:07:01;1.65;;;1.52;;
56039;SDS011;43937;41.366;2.072;2022-12-24T18:09:27;2.65;;;1.70;;
56039;SDS011;43937;41.366;2.072;2022-12-24T18:11:52;7.18;;;2.22;;
56039;SDS011;43937;41.366;2.072;2022-12-24T18:17:09;4.22;;;2.65;;
56039;SDS011;43937;41.366;2.072;2022-12-24T18:23:24;2.63;;;1.85;;
56039;SDS011;43937;41.366;2.072;2022-12-24T18:25:50;8.27;;;3.65;;
56039;SDS011;43937;41.366;2.072;2022-12-24T18:29:18;23.77;;;3.55;;
56039;SDS011;43937;41.366;2.072;2022-12-24T18:33:35;3.15;;;2.08;;
56039;SDS011;43937;41.366;2.072;2022-12-24T18:45:00;3.42;;;1.85;;
56039;SDS011;43937;41.366;2.072;2022-12-24T18:47:25;2.42;;;1.75;;
56039;SDS011;43937;41.366;2.072;2022-12-24T18:50:39;29.25;;;3.08;;
56039;SDS011;43937;41.366;2.072;2022-12-24T19:03:56;4.13;;;2.90;;
56039;SDS011;43937;41.366;2.072;2022-12-24T19:16:18;3.45;;;2.22;;
56039;SDS011;43937;41.366;2.072;2022-12-24T19:25:29;3.00;;;2.40;;
56039;SDS011;43937;41.366;2.072;2022-12-24T19:29:26;8.50;;;2.90;;
56039;SDS011;43937;41.366;2.072;2022-12-24T19:31:51;6.97;;;3.17;;
56039;SDS011;43937;41.366;2.072;2022-12-24T19:34:17;3.80;;;3.05;;
56039;SDS011;43937;41.366;2.072;2022-12-24T19:38:24;6.82;;;3.47;;
56039;SDS011;43937;41.366;2.072;2022-12-24T19:41:11;17.38;;;4.70;;
56039;SDS011;43937;41.366;2.072;2022-12-24T19:45:09;11.10;;;5.30;;
56039;SDS011;43937;41.366;2.072;2022-12-24T19:49:49;5.25;;;3.35;;
56039;SDS011;43937;41.366;2.072;2022-12-24T19:55:02;3.67;;;2.78;;
56039;SDS011;43937;41.366;2.072;2022-12-24T19:57:27;5.55;;;3.58;;
56039;SDS011;43937;41.366;2.072;2022-12-24T19:59:53;10.30;;;5.50;;
56039;SDS011;43937;41.366;2.072;2022-12-24T20:07:26;7.85;;;3.28;;
56039;SDS011;43937;41.366;2.072;2022-12-24T20:11:05;3.70;;;2.47;;
56039;SDS011;43937;41.366;2.072;2022-12-24T20:14:32;4.78;;;3.15;;
56039;SDS011;43937;41.366;2.072;2022-12-24T20:18:17;2.22;;;1.83;;
56039;SDS011;43937;41.366;2.072;2022-12-24T20:21:17;3.88;;;2.55;;
56039;SDS011;43937;41.366;2.072;2022-12-24T20:23:42;1.92;;;1.75;;
56039;SDS011;43937;41.366;2.072;2022-12-24T20:26:09;2.20;;;1.95;;
56039;SDS011;43937;41.366;2.072;2022-12-24T20:30:28;1.67;;;1.48;;
56039;SDS011;43937;41.366;2.072;2022-12-24T20:40:10;5.18;;;2.75;;
56039;SDS011;43937;41.366;2.072;2022-12-24T20:43:42;3.67;;;2.50;;
56039;SDS011;43937;41.366;2.072;2022-12-24T20:49:32;4.50;;;3.30;;
56039;SDS011;43937;41.366;2.072;2022-12-24T20:55:20;5.82;;;1.48;;
56039;SDS011;43937;41.366;2.072;2022-12-24T20:59:36;1.80;;;1.52;;
56039;SDS011;43937;41.366;2.072;2022-12-24T21:02:19;5.38;;;2.15;;
56039;SDS011;43937;41.366;2.072;2022-12-24T21:06:00;2.22;;;1.50;;
56039;SDS011;43937;41.366;2.072;2022-12-24T21:11:24;3.20;;;2.10;;
56039;SDS011;43937;41.366;2.072;2022-12-24T21:18:45;4.45;;;2.42;;
56039;SDS011;43937;41.366;2.072;2022-12-24T21:23:17;2.47;;;2.15;;
56039;SDS011;43937;41.366;2.072;2022-12-24T21:31:24;2.28;;;1.25;;
56039;SDS011;43937;41.366;2.072;2022-12-24T21:36:34;2.10;;;1.75;;
56039;SDS011;43937;41.366;2.072;2022-12-24T21:38:59;2.25;;;1.45;;
56039;SDS011;43937;41.366;2.072;2022-12-24T21:41:25;2.00;;;1.55;;
56039;SDS011;43937;41.366;2.072;2022-12-24T21:44:50;1.65;;;1.30;;
56039;SDS011;43937;41.366;2.072;2022-12-24T21:50:40;2.25;;;1.73;;
56039;SDS011;43937;41.366;2.072;2022-12-24T21:56:42;3.28;;;1.48;;
56039;SDS011;43937;41.366;2.072;2022-12-24T22:10:27;3.47;;;1.70;;
56039;SDS011;43937;41.366;2.072;2022-12-24T22:13:21;1.70;;;1.60;;
56039;SDS011;43937;41.366;2.072;2022-12-24T22:15:55;1.05;;;0.90;;
56039;SDS011;43937;41.366;2.072;2022-12-24T22:20:41;3.90;;;1.55;;
56039;SDS011;43937;41.366;2.072;2022-12-24T22:31:16;2.75;;;1.95;;
56039;SDS011;43937;41.366;2.072;2022-12-24T22:38:31;4.88;;;1.83;;
56039;SDS011;43937;41.366;2.072;2022-12-24T22:41:50;1.67;;;1.58;;
56039;SDS011;43937;41.366;2.072;2022-12-24T22:47:06;1.83;;;1.52;;
56039;SDS011;43937;41.366;2.072;2022-12-24T22:49:31;1.35;;;1.25;;
56039;SDS011;43937;41.366;2.072;2022-12-24T22:57:29;2.55;;;1.95;;
56039;SDS011;43937;41.366;2.072;2022-12-24T23:06:05;6.45;;;2.15;;
56039;SDS011;43937;41.366;2.072;2022-12-24T23:09:47;2.00;;;1.77;;
56039;SDS011;43937;41.366;2.072;2022-12-24T23:17:35;2.17;;;1.55;;
56039;SDS011;43937;41.366;2.072;2022-12-24T23:25:46;8.57;;;2.05;;
56039;SDS011;43937;41.366;2.072;2022-12-24T23:30:19;1.45;;;1.35;;
56039;SDS011;43937;41.366;2.072;2022-12-24T23:33:20;3.92;;;1.60;;
56039;SDS011;43937;41.366;2.072;2022-12-24T23:40:58;2.00;;;1.80;;
56039;SDS011;43937;41.366;2.072;2022-12-24T23:50:30;1.30;;;1.20;;
56039;SDS011;43937;41.366;2.072;2022-12-24T23:52:55;8.07;;;1.95;;
